createdAt,value
2018-07-25T05:02:18.758Z,29.50
2018-07-25T05:07:18.731Z,22.40
2018-07-25T05:09:55.725Z,22.40
2018-07-25T05:12:29.063Z,22.40
2018-07-25T05:14:58.587Z,22.40
2018-07-25T05:17:28.057Z,22.40
2018-07-25T05:19:57.791Z,22.50
2018-07-25T05:22:27.255Z,22.50
2018-07-25T05:24:56.704Z,22.50
2018-07-25T05:27:26.475Z,22.60
2018-07-25T05:29:55.969Z,22.70
2018-07-25T05:32:25.566Z,22.70
2018-07-25T05:34:55.560Z,22.70
2018-07-25T05:37:38.207Z,22.80
2018-07-25T05:40:09.204Z,22.80
2018-07-25T05:42:38.681Z,22.90
2018-07-25T05:45:08.273Z,22.80
2018-07-25T05:47:38.102Z,22.90
2018-07-25T05:50:16.396Z,22.90
2018-07-25T05:52:46.228Z,22.90
2018-07-25T05:55:15.730Z,23.10
2018-07-25T05:57:45.281Z,23.10
2018-07-25T06:00:14.781Z,23.10
2018-07-25T06:02:44.367Z,23.20
2018-07-25T06:05:14.415Z,23.00
2018-07-25T06:07:43.826Z,23.20
2018-07-25T06:10:20.175Z,23.20
2018-07-25T06:12:49.941Z,23.30
2018-07-25T06:15:27.767Z,23.50
2018-07-25T06:17:57.623Z,23.50
2018-07-25T06:20:27.179Z,23.60
2018-07-25T06:22:56.728Z,23.60
2018-07-25T06:25:26.521Z,23.60
2018-07-25T06:27:56.043Z,23.50
2018-07-25T06:30:35.048Z,23.40
2018-07-25T06:33:04.578Z,23.50
2018-07-25T06:35:34.186Z,23.50
2018-07-25T06:38:04.203Z,23.60
2018-07-25T06:40:33.725Z,23.70
2018-07-25T06:43:03.284Z,23.90
2018-07-25T06:45:33.195Z,24.00
2018-07-25T06:48:03.067Z,24.10
2018-07-25T06:50:32.609Z,24.20
2018-07-25T06:53:02.458Z,24.30
2018-07-25T06:55:32.216Z,24.40
2018-07-25T06:58:01.755Z,24.40
2018-07-25T07:00:31.367Z,24.50
2018-07-25T07:03:01.129Z,24.60
2018-07-25T07:05:30.769Z,24.70
2018-07-25T07:08:00.313Z,24.80
2018-07-25T07:10:29.922Z,24.90
2018-07-25T07:13:05.429Z,25.00
2018-07-25T07:15:34.910Z,25.10
2018-07-25T07:18:11.748Z,25.20
2018-07-25T07:20:41.221Z,25.30
2018-07-25T07:23:11.083Z,25.40
2018-07-25T07:25:40.686Z,25.40
2018-07-25T07:28:25.230Z,25.40
2018-07-25T07:30:56.068Z,25.40
2018-07-25T07:33:25.782Z,25.40
2018-07-25T07:35:55.778Z,25.60
2018-07-25T07:38:25.442Z,25.60
2018-07-25T07:40:55.034Z,25.70
2018-07-25T07:43:25.114Z,25.80
2018-07-25T07:45:54.618Z,25.80
2018-07-25T07:48:31.045Z,25.90
2018-07-25T07:51:00.960Z,25.90
2018-07-25T07:53:30.592Z,26.00
2018-07-25T07:56:00.155Z,25.90
2018-07-25T07:58:30.121Z,26.00
2018-07-25T08:00:59.719Z,26.20
2018-07-25T08:03:29.250Z,26.30
2018-07-25T08:05:58.830Z,26.40
2018-07-25T08:08:28.482Z,26.30
2018-07-25T08:11:00.297Z,26.40
2018-07-25T08:13:35.532Z,26.40
2018-07-25T08:16:10.214Z,26.40
2018-07-25T08:18:39.982Z,26.10
2018-07-25T08:21:09.703Z,26.50
2018-07-25T08:23:39.335Z,26.60
2018-07-25T08:26:09.238Z,26.70
2018-07-25T08:28:38.990Z,26.90
2018-07-25T08:31:09.191Z,27.10
2018-07-25T08:33:39.047Z,27.10
2018-07-25T08:36:08.673Z,27.20
2018-07-25T08:38:41.510Z,27.50
2018-07-25T08:41:12.020Z,27.60
2018-07-25T08:43:42.961Z,27.50
2018-07-25T08:46:14.540Z,27.30
2018-07-25T08:48:44.612Z,27.60
2018-07-25T08:51:14.857Z,28.00
2018-07-25T08:53:44.764Z,28.20
2018-07-25T08:56:15.364Z,28.10
2018-07-25T08:58:45.260Z,28.20
2018-07-25T09:01:15.106Z,28.10
2018-07-25T09:03:45.027Z,28.10
2018-07-25T09:06:14.763Z,28.80
2018-07-25T09:08:44.850Z,28.30
2018-07-25T09:11:22.169Z,28.40
2018-07-25T09:13:53.329Z,28.60
2018-07-25T09:16:23.137Z,28.50
2018-07-25T09:18:54.287Z,28.50
2018-07-25T09:21:24.501Z,28.50
2018-07-25T09:23:54.242Z,28.60
2018-07-25T09:26:24.010Z,28.80
2018-07-25T09:28:54.324Z,28.90
2018-07-25T09:31:24.096Z,28.90
2018-07-25T09:33:53.849Z,29.30
2018-07-25T09:36:23.962Z,29.30
2018-07-25T09:38:53.837Z,29.30
2018-07-25T09:41:23.520Z,29.30
2018-07-25T09:43:53.815Z,29.30
2018-07-25T09:46:30.559Z,29.00
2018-07-25T09:49:00.406Z,29.00
2018-07-25T09:51:35.862Z,29.10
2018-07-25T09:54:05.705Z,28.90
2018-07-25T09:56:35.389Z,29.50
2018-07-25T09:59:05.187Z,30.60
2018-07-25T10:01:35.025Z,29.80
2018-07-25T10:04:05.378Z,29.80
2018-07-25T10:06:35.169Z,29.80
2018-07-25T10:09:06.957Z,30.00
2018-07-25T10:11:37.033Z,30.20
2018-07-25T10:14:06.864Z,30.70
2018-07-25T10:16:36.848Z,30.70
2018-07-25T10:19:06.885Z,30.80
2018-07-25T10:21:36.621Z,30.60
2018-07-25T10:24:06.379Z,30.50
2018-07-25T10:26:41.809Z,30.60
2018-07-25T10:29:11.683Z,30.80
2018-07-25T10:31:41.934Z,30.70
2018-07-25T10:34:12.219Z,30.80
2018-07-25T10:36:41.875Z,30.90
2018-07-25T10:39:11.701Z,30.80
2018-07-25T10:41:41.500Z,30.90
2018-07-25T10:44:12.053Z,30.90
2018-07-25T10:46:43.147Z,31.00
2018-07-25T10:49:16.573Z,31.10
2018-07-25T10:51:46.367Z,31.10
2018-07-25T10:54:16.055Z,31.20
2018-07-25T10:56:53.113Z,31.50
2018-07-25T10:59:23.073Z,31.60
2018-07-25T11:01:52.680Z,31.80
2018-07-25T11:04:22.347Z,32.00
2018-07-25T11:06:52.261Z,32.00
2018-07-25T11:09:22.125Z,32.00
2018-07-25T11:11:51.857Z,31.90
2018-07-25T11:14:21.943Z,32.00
2018-07-25T11:16:51.655Z,32.00
2018-07-25T11:19:30.520Z,32.00
2018-07-25T11:22:00.226Z,32.00
2018-07-25T11:24:30.305Z,32.30
2018-07-25T11:27:00.750Z,32.40
2018-07-25T11:29:30.660Z,32.40
2018-07-25T11:32:00.253Z,32.60
2018-07-25T11:34:29.925Z,32.80
2018-07-25T11:36:59.830Z,32.90
2018-07-25T11:39:30.110Z,33.00
2018-07-25T11:42:00.318Z,33.00
2018-07-25T11:44:29.873Z,32.90
2018-07-25T11:47:10.351Z,33.60
2018-07-25T11:49:40.462Z,32.90
2018-07-25T11:52:10.018Z,33.00
2018-07-25T11:54:39.947Z,33.10
2018-07-25T11:57:09.790Z,33.50
2018-07-25T11:59:39.395Z,33.60
2018-07-25T12:02:08.898Z,33.70
2018-07-25T12:04:38.719Z,34.60
2018-07-25T12:07:08.356Z,33.70
2018-07-25T12:09:43.924Z,33.90
2018-07-25T12:12:14.085Z,33.90
2018-07-25T12:14:43.752Z,33.80
2018-07-25T12:17:20.542Z,33.90
2018-07-25T12:19:50.509Z,33.70
2018-07-25T12:22:20.196Z,33.60
2018-07-25T12:24:49.805Z,33.80
2018-07-25T12:27:19.661Z,33.80
2018-07-25T12:29:49.598Z,33.90
2018-07-25T12:32:19.112Z,33.90
2018-07-25T12:34:48.988Z,33.90
2018-07-25T12:37:18.652Z,33.90
2018-07-25T12:39:48.348Z,33.80
2018-07-25T12:42:18.213Z,34.00
2018-07-25T12:44:47.838Z,34.80
2018-07-25T12:47:17.550Z,34.00
2018-07-25T14:12:26.809Z,35.30
2018-07-25T14:15:09.401Z,37.00
2018-07-25T14:17:39.283Z,37.10
2018-07-25T14:20:08.944Z,40.40
2018-07-25T14:22:38.691Z,39.90
2018-07-25T14:25:08.479Z,36.90
2018-07-25T14:27:38.283Z,36.70
2018-07-25T14:30:08.069Z,36.90
2018-07-25T14:32:37.752Z,36.60
2018-07-25T14:35:07.499Z,35.40
2018-07-25T14:42:43.896Z,34.80
2018-07-25T14:47:43.231Z,35.00
2018-07-25T14:50:13.378Z,34.50
2018-07-25T14:52:46.855Z,34.40
2018-07-25T14:55:17.517Z,33.00
2018-07-25T14:57:55.405Z,35.00
2018-07-25T15:00:26.048Z,35.00
2018-07-25T15:02:56.591Z,35.00
2018-07-25T15:05:27.275Z,34.80
2018-07-25T15:07:57.636Z,34.50
2018-07-25T15:10:27.498Z,34.30
2018-07-25T15:12:58.927Z,34.40
2018-07-25T15:15:29.491Z,34.60
2018-07-25T15:18:06.321Z,34.90
2018-07-25T15:20:42.117Z,35.00
2018-07-25T15:23:12.318Z,34.80
2018-07-25T15:25:42.103Z,34.60
2018-07-25T15:28:17.730Z,34.60
2018-07-25T15:30:49.204Z,34.50
2018-07-25T15:34:10.534Z,34.30
2018-07-25T15:36:51.804Z,34.00
2018-07-25T15:39:24.601Z,34.00
2018-07-25T15:44:10.320Z,34.00
2018-07-25T15:46:40.943Z,33.80
2018-07-25T15:49:15.654Z,33.70
2018-07-25T15:51:46.096Z,33.40
2018-07-25T15:54:20.249Z,33.40
2018-07-25T15:56:50.563Z,33.50
2018-07-25T15:59:20.278Z,33.50
2018-07-25T16:01:50.270Z,33.70
2018-07-25T16:04:20.294Z,33.80
2018-07-25T16:06:50.808Z,33.70
2018-07-25T16:09:20.615Z,33.70
2018-07-25T16:12:01.826Z,33.80
2018-07-25T16:14:31.995Z,33.80
2018-07-25T16:17:02.075Z,33.80
2018-07-25T16:19:32.015Z,33.70
2018-07-25T16:22:02.752Z,33.50
2018-07-25T16:24:33.279Z,32.30
2018-07-25T16:27:03.843Z,32.00
2018-07-25T16:29:35.065Z,33.40
2018-07-25T16:32:05.128Z,33.10
2018-07-25T16:34:34.906Z,33.10
2018-07-25T16:37:12.416Z,30.80
2018-07-25T16:39:42.322Z,33.20
2018-07-25T16:42:16.513Z,32.90
2018-07-25T16:44:46.645Z,32.90
2018-07-25T16:47:16.581Z,32.90
2018-07-25T16:49:46.483Z,32.90
2018-07-25T16:52:20.656Z,32.90
2018-07-25T16:54:50.917Z,32.20
2018-07-25T16:57:20.849Z,32.90
2018-07-25T16:59:51.882Z,32.90
2018-07-25T17:02:40.354Z,32.80
2018-07-25T17:05:24.922Z,32.80
2018-07-25T17:07:54.898Z,32.90
2018-07-25T17:10:25.538Z,32.70
2018-07-25T17:12:56.782Z,32.70
2018-07-25T17:15:28.845Z,32.70
2018-07-25T17:17:59.820Z,35.80
2018-07-25T17:20:30.593Z,32.70
2018-07-25T17:23:01.313Z,32.60
2018-07-25T17:25:42.670Z,31.10
2018-07-25T17:28:13.369Z,30.20
2018-07-25T17:30:49.055Z,32.60
2018-07-25T17:33:21.126Z,32.40
2018-07-25T17:35:52.832Z,32.30
2018-07-25T17:38:34.268Z,32.20
2018-07-25T17:41:10.647Z,35.00
2018-07-25T17:43:40.491Z,32.10
2018-07-25T17:46:10.554Z,32.00
2018-07-25T17:48:47.463Z,31.90
2018-07-25T17:51:17.693Z,31.80
2018-07-25T17:54:01.857Z,31.70
2018-07-25T17:56:32.111Z,31.40
2018-07-25T17:59:03.442Z,31.40
2018-07-25T18:01:33.371Z,31.40
2018-07-25T18:04:03.191Z,31.30
2018-07-25T18:06:33.381Z,31.30
2018-07-25T18:09:03.864Z,31.20
2018-07-25T18:11:33.897Z,30.90
2018-07-25T18:14:09.207Z,30.80
2018-07-25T18:16:39.021Z,30.60
2018-07-25T18:19:10.298Z,30.50
2018-07-25T18:21:41.298Z,30.50
2018-07-25T18:24:11.742Z,30.40
2018-07-25T18:26:41.846Z,30.30
2018-07-25T18:29:13.225Z,30.20
2018-07-25T18:31:43.580Z,30.10
2018-07-25T18:34:19.987Z,30.00
2018-07-25T18:36:51.293Z,29.90
2018-07-25T18:39:22.416Z,29.80
2018-07-25T18:41:52.822Z,29.70
2018-07-25T18:44:23.052Z,29.60
2018-07-25T18:46:55.251Z,29.60
2018-07-25T18:49:25.515Z,29.80
2018-07-25T18:51:55.639Z,29.90
2018-07-25T18:54:26.279Z,29.80
2018-07-25T18:56:56.095Z,29.70
2018-07-25T18:59:26.053Z,29.80
2018-07-25T19:01:57.167Z,29.70
2018-07-25T19:04:27.124Z,29.70
2018-07-25T19:07:11.392Z,29.60
2018-07-25T19:09:56.588Z,30.80
2018-07-25T19:12:28.264Z,29.60
2018-07-25T19:15:11.756Z,29.60
2018-07-25T19:17:41.697Z,29.60
2018-07-25T19:20:13.988Z,29.50
2018-07-25T19:22:44.169Z,29.50
2018-07-25T19:25:18.388Z,29.40
2018-07-25T19:27:49.699Z,29.40
2018-07-25T19:30:19.857Z,29.40
2018-07-25T19:32:51.374Z,29.40
2018-07-25T19:35:23.949Z,29.40
2018-07-25T19:37:54.264Z,29.40
2018-07-25T19:40:24.129Z,29.30
2018-07-25T19:45:37.186Z,29.30
2018-07-25T19:48:12.229Z,30.50
2018-07-25T19:50:42.304Z,29.20
2018-07-25T19:53:12.230Z,29.20
2018-07-25T19:55:42.031Z,29.20
2018-07-25T19:58:19.088Z,29.20
2018-07-25T20:00:49.221Z,29.10
2018-07-25T20:03:19.825Z,29.10
2018-07-25T20:05:49.801Z,29.00
2018-07-25T20:08:24.467Z,29.00
2018-07-25T20:10:54.645Z,29.00
2018-07-25T20:13:24.538Z,29.00
2018-07-25T20:15:58.740Z,29.00
2018-07-25T20:18:31.392Z,32.40
2018-07-25T20:21:02.743Z,29.00
2018-07-25T20:23:34.692Z,29.00
2018-07-25T20:26:05.544Z,28.90
2018-07-25T20:28:36.580Z,31.60
2018-07-25T20:31:06.695Z,28.70
2018-07-25T20:33:37.618Z,28.60
2018-07-25T20:36:10.504Z,28.50
2018-07-25T20:38:40.628Z,28.40
2018-07-25T20:41:10.318Z,28.40
2018-07-25T20:43:41.286Z,28.40
2018-07-25T20:46:12.926Z,28.40
2018-07-25T20:48:43.793Z,28.40
2018-07-25T20:51:22.857Z,28.30
2018-07-25T20:53:53.502Z,29.70
2018-07-25T20:56:25.814Z,28.00
2018-07-25T20:58:57.022Z,28.00
2018-07-25T21:01:26.855Z,28.00
2018-07-25T21:03:57.855Z,28.00
2018-07-25T21:06:29.322Z,28.00
2018-07-25T21:09:01.036Z,28.00
2018-07-25T21:11:35.558Z,27.90
2018-07-25T21:14:08.782Z,27.80
2018-07-25T21:16:40.218Z,27.90
2018-07-25T21:19:10.676Z,27.80
2018-07-25T21:21:43.525Z,28.90
2018-07-25T21:24:15.227Z,27.80
2018-07-25T21:26:47.341Z,27.80
2018-07-25T21:29:18.702Z,27.80
2018-07-25T21:31:54.797Z,27.50
2018-07-25T21:34:27.021Z,27.50
2018-07-25T21:36:59.825Z,27.50
2018-07-25T21:39:45.147Z,27.50
2018-07-25T21:42:14.844Z,27.50
2018-07-25T21:44:44.912Z,27.40
2018-07-25T21:47:14.908Z,27.40
2018-07-25T21:49:44.787Z,27.30
2018-07-25T21:52:15.015Z,27.30
2018-07-25T21:54:44.667Z,24.40
2018-07-25T21:57:14.437Z,27.20
2018-07-25T21:59:44.742Z,27.10
2018-07-25T22:02:14.512Z,27.00
2018-07-25T22:04:44.233Z,27.00
2018-07-25T22:07:13.814Z,26.80
2018-07-25T22:09:47.204Z,26.80
2018-07-25T22:12:30.685Z,26.70
2018-07-25T22:15:08.026Z,26.80
2018-07-25T22:17:38.424Z,26.70
2018-07-25T22:20:14.267Z,26.60
2018-07-25T22:22:44.075Z,26.50
2018-07-25T22:25:14.012Z,26.50
2018-07-25T22:27:43.752Z,26.50
2018-07-25T22:30:13.793Z,26.50
2018-07-25T22:32:43.513Z,26.50
2018-07-25T22:35:13.411Z,26.40
2018-07-25T22:37:50.160Z,26.40
2018-07-25T22:40:20.039Z,26.30
2018-07-25T22:45:26.868Z,26.20
2018-07-25T22:47:56.687Z,26.10
2018-07-25T22:50:31.688Z,26.10
2018-07-25T22:53:01.769Z,26.10
2018-07-25T22:55:35.936Z,26.00
2018-07-25T22:58:06.165Z,26.00
2018-07-25T23:00:36.122Z,25.90
2018-07-25T23:03:18.940Z,25.80
2018-07-25T23:05:48.861Z,25.80
2018-07-25T23:08:18.411Z,27.30
2018-07-25T23:10:48.235Z,25.90
2018-07-25T23:13:18.072Z,25.90
2018-07-25T23:15:47.653Z,25.80
2018-07-25T23:18:17.327Z,25.80
2018-07-25T23:20:47.190Z,25.70
2018-07-25T23:23:23.587Z,25.60
2018-07-25T23:25:53.255Z,25.50
2018-07-25T23:28:29.779Z,25.40
2018-07-25T23:30:59.660Z,25.50
2018-07-25T23:33:34.791Z,25.50
2018-07-25T23:36:04.374Z,25.50
2018-07-25T23:38:34.254Z,25.50
2018-07-25T23:41:10.781Z,23.90
2018-07-25T23:43:46.077Z,25.40
2018-07-25T23:46:15.962Z,25.40
2018-07-25T23:48:46.293Z,25.40
2018-07-25T23:51:15.901Z,25.30
2018-07-25T23:53:45.586Z,25.40
2018-07-25T23:56:16.093Z,25.30
2018-07-25T23:58:46.043Z,25.20
